createdAt,value
2019-05-28T00:00:38.779Z,100679.89
2019-05-28T00:03:11.052Z,100683.11
2019-05-28T00:05:43.343Z,100686.70
2019-05-28T00:08:15.722Z,100688.06
2019-05-28T00:10:48.068Z,100686.83
2019-05-28T00:13:20.370Z,100690.28
2019-05-28T00:15:52.749Z,100693.93
2019-05-28T00:18:25.096Z,100690.89
2019-05-28T00:20:57.588Z,100690.45
2019-05-28T00:23:29.758Z,100691.11
2019-05-28T00:26:01.974Z,100690.12
2019-05-28T00:28:34.464Z,100694.77
2019-05-28T00:31:08.515Z,100690.53
2019-05-28T00:33:41.000Z,100687.89
2019-05-28T00:36:13.539Z,100682.89
2019-05-28T00:38:46.070Z,100687.61
2019-05-28T00:41:18.417Z,100689.28
2019-05-28T00:43:51.307Z,100692.39
2019-05-28T00:46:23.667Z,100686.34
2019-05-28T00:48:56.522Z,100680.91
2019-05-28T00:51:29.386Z,100676.89
2019-05-28T00:54:01.890Z,100677.69
2019-05-28T00:56:35.420Z,100682.55
2019-05-28T00:59:08.177Z,100677.51
2019-05-28T01:01:40.992Z,100677.51
2019-05-28T01:04:13.437Z,100676.46
2019-05-28T01:06:45.867Z,100673.42
2019-05-28T01:09:18.229Z,100674.98
2019-05-28T01:11:50.428Z,100675.78
2019-05-28T01:14:22.669Z,100670.96
2019-05-28T01:16:55.060Z,100668.82
2019-05-28T01:19:27.306Z,100670.63
2019-05-28T01:21:59.645Z,100669.62
2019-05-28T01:24:31.881Z,100667.98
2019-05-28T01:27:04.207Z,100669.41
2019-05-28T01:29:36.450Z,100666.80
2019-05-28T01:32:08.778Z,100662.38
2019-05-28T01:34:41.100Z,100664.01
2019-05-28T01:37:13.377Z,100661.62
2019-05-28T01:39:45.765Z,100663.03
2019-05-28T01:42:18.137Z,100660.20
2019-05-28T01:44:50.478Z,100660.81
2019-05-28T01:47:22.731Z,100660.64
2019-05-28T01:49:55.049Z,100653.36
2019-05-28T01:52:27.288Z,100657.59
2019-05-28T01:54:59.585Z,100654.13
2019-05-28T01:57:31.822Z,100663.97
2019-05-28T02:00:04.653Z,100656.63
2019-05-28T02:02:37.559Z,100661.47
2019-05-28T02:05:11.410Z,100659.23
2019-05-28T02:07:43.751Z,100658.83
2019-05-28T02:10:17.020Z,100658.11
2019-05-28T02:12:49.498Z,100653.11
2019-05-28T02:15:22.374Z,100656.58
2019-05-28T02:17:54.677Z,100651.34
2019-05-28T02:20:27.360Z,100647.53
2019-05-28T02:22:59.740Z,100650.58
2019-05-28T02:25:32.455Z,100650.97
2019-05-28T02:28:04.744Z,100646.08
2019-05-28T02:30:37.237Z,100644.23
2019-05-28T02:33:10.225Z,100646.48
2019-05-28T02:35:42.962Z,100644.45
2019-05-28T02:38:15.821Z,100642.03
2019-05-28T02:40:48.116Z,100642.20
2019-05-28T02:43:20.391Z,100636.25
2019-05-28T02:45:52.780Z,100638.05
2019-05-28T02:48:25.129Z,100636.42
2019-05-28T02:51:07.527Z,100637.84
2019-05-28T02:53:40.198Z,100631.39
2019-05-28T02:56:15.792Z,100634.76
2019-05-28T02:58:51.392Z,100626.91
2019-05-28T03:01:26.424Z,100635.16
2019-05-28T03:04:00.159Z,100631.28
2019-05-28T03:06:34.858Z,100628.28
2019-05-28T03:09:09.631Z,100628.42
2019-05-28T03:11:41.954Z,100623.57
2019-05-28T03:14:14.200Z,100620.89
2019-05-28T03:16:50.738Z,100623.90
2019-05-28T03:19:25.381Z,100627.11
2019-05-28T03:22:02.042Z,100630.52
2019-05-28T03:24:36.723Z,100631.53
2019-05-28T03:27:09.022Z,100633.91
2019-05-28T03:29:41.240Z,100632.72
2019-05-28T03:32:13.678Z,100635.95
2019-05-28T03:34:45.940Z,100635.58
2019-05-28T03:37:19.857Z,100638.23
2019-05-28T03:39:56.354Z,100636.64
2019-05-28T03:42:28.610Z,100643.55
2019-05-28T03:45:01.043Z,100647.61
2019-05-28T03:47:33.403Z,100642.65
2019-05-28T03:50:06.325Z,100643.77
2019-05-28T03:52:39.811Z,100641.63
2019-05-28T03:55:13.303Z,100646.77
2019-05-28T03:57:45.568Z,100640.17
2019-05-28T04:00:17.897Z,100651.91
2019-05-28T04:02:50.093Z,100653.31
2019-05-28T04:05:22.501Z,100646.44
2019-05-28T04:07:54.844Z,100647.48
2019-05-28T04:10:27.269Z,100646.87
2019-05-28T04:12:59.958Z,100641.86
2019-05-28T04:15:32.499Z,100642.73
2019-05-28T04:18:05.085Z,100640.73
2019-05-28T04:20:37.851Z,100647.03
2019-05-28T04:23:17.718Z,100648.84
2019-05-28T04:25:50.229Z,100650.41
2019-05-28T04:28:22.572Z,100645.16
2019-05-28T04:30:55.143Z,100653.23
2019-05-28T04:33:27.544Z,100655.48
2019-05-28T04:35:59.816Z,100656.92
2019-05-28T04:38:32.248Z,100659.01
2019-05-28T04:41:04.469Z,100659.28
2019-05-28T04:43:36.910Z,100664.66
2019-05-28T04:46:09.584Z,100668.34
2019-05-28T04:48:41.946Z,100667.38
2019-05-28T04:51:14.252Z,100665.44
2019-05-28T04:53:46.570Z,100665.12
2019-05-28T04:56:18.824Z,100672.27
2019-05-28T04:58:51.290Z,100664.69
2019-05-28T05:01:23.763Z,100662.53
2019-05-28T05:03:56.408Z,100671.47
2019-05-28T05:06:28.874Z,100668.87
2019-05-28T05:09:02.136Z,100675.19
2019-05-28T05:11:34.374Z,100677.50
2019-05-28T05:14:06.659Z,100672.67
2019-05-28T05:16:39.035Z,100683.39
2019-05-28T05:19:11.233Z,100676.63
2019-05-28T05:21:43.556Z,100680.84
2019-05-28T05:24:15.886Z,100682.09
2019-05-28T05:26:48.142Z,100679.55
2019-05-28T05:29:22.162Z,100676.92
2019-05-28T05:31:54.474Z,100673.94
2019-05-28T05:34:26.917Z,100674.05
2019-05-28T05:36:59.108Z,100671.83
2019-05-28T05:39:31.939Z,100673.88
2019-05-28T05:42:04.270Z,100672.57
2019-05-28T05:44:36.706Z,100677.02
2019-05-28T05:47:08.989Z,100680.56
2019-05-28T05:49:41.414Z,100685.69
2019-05-28T05:52:13.780Z,100690.11
2019-05-28T05:54:46.111Z,100694.00
2019-05-28T05:57:20.542Z,100696.50
2019-05-28T05:59:52.913Z,100693.16
2019-05-28T06:02:25.691Z,100695.23
2019-05-28T06:04:58.291Z,100690.50
2019-05-28T06:07:34.052Z,100692.67
2019-05-28T06:10:07.560Z,100689.70
2019-05-28T06:12:41.090Z,100682.74
2019-05-28T06:15:15.295Z,100691.21
2019-05-28T06:17:48.879Z,100690.83
2019-05-28T06:20:21.710Z,100689.97
2019-05-28T06:22:54.420Z,100689.51
2019-05-28T06:25:26.803Z,100689.79
2019-05-28T06:27:59.085Z,100686.75
2019-05-28T06:30:31.578Z,100691.91
2019-05-28T06:33:03.904Z,100688.17
2019-05-28T06:35:36.331Z,100675.99
2019-05-28T06:38:08.634Z,100675.36
2019-05-28T06:40:40.995Z,100681.15
2019-05-28T06:43:13.844Z,100681.03
2019-05-28T06:45:46.488Z,100684.95
2019-05-28T06:48:18.885Z,100683.37
2019-05-28T06:50:51.406Z,100680.44
2019-05-28T06:53:23.812Z,100680.95
2019-05-28T06:55:56.271Z,100680.09
2019-05-28T06:58:38.517Z,100677.89
2019-05-28T07:01:03.729Z,100679.53
2019-05-28T07:03:36.520Z,100682.00
2019-05-28T07:06:08.830Z,100689.72
2019-05-28T07:08:41.552Z,100686.22
2019-05-28T07:11:13.952Z,100686.60
2019-05-28T07:13:46.273Z,100686.86
2019-05-28T07:16:18.639Z,100689.34
2019-05-28T07:18:51.109Z,100686.95
2019-05-28T07:21:23.335Z,100690.96
2019-05-28T07:23:57.073Z,100698.45
2019-05-28T07:26:30.538Z,100696.34
2019-05-28T07:29:04.212Z,100700.56
2019-05-28T07:31:36.594Z,100701.14
2019-05-28T07:34:08.885Z,100699.98
2019-05-28T07:36:41.407Z,100694.59
2019-05-28T07:39:13.643Z,100693.58
2019-05-28T07:41:45.922Z,100701.69
2019-05-28T07:44:18.327Z,100694.84
2019-05-28T07:46:50.535Z,100698.97
2019-05-28T07:49:22.965Z,100700.00
2019-05-28T07:51:55.194Z,100701.80
2019-05-28T07:54:28.007Z,100695.62
2019-05-28T07:57:00.538Z,100699.22
2019-05-28T07:59:33.064Z,100695.35
2019-05-28T08:02:05.579Z,100706.45
2019-05-28T08:04:46.943Z,100711.44
2019-05-28T08:07:12.386Z,100704.97
2019-05-28T08:09:45.259Z,100712.28
2019-05-28T08:12:17.509Z,100718.53
2019-05-28T08:14:49.851Z,100720.92
2019-05-28T08:17:22.161Z,100715.56
2019-05-28T08:19:54.634Z,100719.00
2019-05-28T08:22:41.038Z,100721.36
2019-05-28T08:25:01.183Z,100720.62
2019-05-28T08:27:33.472Z,100721.09
2019-05-28T08:30:05.913Z,100714.56
2019-05-28T08:32:38.691Z,100706.86
2019-05-28T08:35:11.043Z,100709.86
2019-05-28T08:37:43.446Z,100711.95
2019-05-28T08:40:16.273Z,100716.57
2019-05-28T08:42:48.644Z,100712.70
2019-05-28T08:45:21.245Z,100709.80
2019-05-28T08:47:53.585Z,100715.30
2019-05-28T08:50:34.370Z,100706.64
2019-05-28T08:52:59.960Z,100711.66
2019-05-28T08:55:32.451Z,100701.80
2019-05-28T08:58:05.282Z,100702.50
2019-05-28T09:00:43.000Z,100697.66
2019-05-28T09:03:17.659Z,100698.03
2019-05-28T09:05:49.918Z,100695.38
2019-05-28T09:08:37.776Z,100691.73
2019-05-28T09:10:56.158Z,100703.12
2019-05-28T09:13:29.333Z,100700.11
2019-05-28T09:16:01.694Z,100703.22
2019-05-28T09:18:33.994Z,100699.44
2019-05-28T09:21:06.352Z,100696.22
2019-05-28T09:23:38.573Z,100693.58
2019-05-28T09:26:10.893Z,100701.28
2019-05-28T09:28:43.306Z,100697.62
2019-05-28T09:31:15.950Z,100691.30
2019-05-28T09:33:48.473Z,100703.08
2019-05-28T09:36:21.021Z,100691.07
2019-05-28T09:38:53.620Z,100692.89
2019-05-28T09:41:26.227Z,100688.45
2019-05-28T09:43:58.847Z,100688.69
2019-05-28T09:46:31.569Z,100685.61
2019-05-28T09:49:04.395Z,100687.43
2019-05-28T09:51:37.309Z,100691.67
2019-05-28T09:54:09.666Z,100679.69
2019-05-28T09:56:42.111Z,100681.54
2019-05-28T09:59:14.991Z,100686.63
2019-05-28T10:01:48.709Z,100680.80
2019-05-28T10:04:21.543Z,100675.56
2019-05-28T10:06:53.895Z,100670.27
2019-05-28T10:09:26.337Z,100667.23
2019-05-28T10:11:58.648Z,100660.31
2019-05-28T10:14:33.445Z,100662.14
2019-05-28T10:17:06.067Z,100659.72
2019-05-28T10:19:38.430Z,100657.67
2019-05-28T10:22:11.201Z,100664.58
2019-05-28T10:24:43.626Z,100656.28
2019-05-28T10:27:16.011Z,100658.95
2019-05-28T10:29:48.294Z,100662.41
2019-05-28T10:32:20.649Z,100658.77
2019-05-28T10:35:03.309Z,100659.38
2019-05-28T10:37:26.873Z,100659.98
2019-05-28T10:39:59.112Z,100654.28
2019-05-28T10:42:31.436Z,100658.95
2019-05-28T10:45:03.789Z,100653.47
2019-05-28T10:47:36.155Z,100648.38
2019-05-28T10:50:08.704Z,100647.55
2019-05-28T10:52:41.301Z,100645.53
2019-05-28T10:55:15.974Z,100642.09
2019-05-28T10:57:48.449Z,100636.40
2019-05-28T11:00:23.471Z,100641.66
2019-05-28T11:02:55.820Z,100636.56
2019-05-28T11:05:28.312Z,100637.16
2019-05-28T11:08:00.656Z,100630.81
2019-05-28T11:10:33.172Z,100632.89
2019-05-28T11:13:05.658Z,100636.37
2019-05-28T11:15:38.135Z,100632.55
2019-05-28T11:18:10.715Z,100631.98
2019-05-28T11:20:43.287Z,100619.86
2019-05-28T11:23:15.964Z,100622.11
2019-05-28T11:25:48.418Z,100629.59
2019-05-28T11:28:20.652Z,100632.84
2019-05-28T11:30:53.203Z,100630.39
2019-05-28T11:33:25.639Z,100629.82
2019-05-28T11:35:58.382Z,100623.56
2019-05-28T11:38:31.074Z,100631.48
2019-05-28T11:41:03.621Z,100619.12
2019-05-28T11:43:35.892Z,100616.47
2019-05-28T11:46:08.134Z,100614.80
2019-05-28T11:48:40.537Z,100616.39
2019-05-28T11:51:12.803Z,100619.23
2019-05-28T11:53:45.198Z,100614.83
2019-05-28T11:56:17.504Z,100617.72
2019-05-28T11:58:49.959Z,100607.45
2019-05-28T12:01:33.883Z,100614.77
2019-05-28T12:03:56.275Z,100614.56
2019-05-28T12:06:28.630Z,100608.48
2019-05-28T12:09:01.016Z,100608.64
2019-05-28T12:11:33.578Z,100602.75
2019-05-28T12:14:06.080Z,100600.51
2019-05-28T12:16:38.383Z,100603.36
2019-05-28T12:19:10.749Z,100604.60
2019-05-28T12:21:44.276Z,100597.69
2019-05-28T12:24:16.589Z,100600.14
2019-05-28T12:26:48.863Z,100595.47
2019-05-28T12:29:21.159Z,100595.88
2019-05-28T12:31:53.569Z,100588.72
2019-05-28T12:34:26.088Z,100587.90
2019-05-28T12:36:58.341Z,100590.56
2019-05-28T12:39:31.011Z,100579.00
2019-05-28T12:42:07.197Z,100577.78
2019-05-28T12:44:42.392Z,100575.30
2019-05-28T12:47:14.603Z,100568.80
2019-05-28T12:49:45.334Z,100564.94
2019-05-28T12:52:18.233Z,100561.69
2019-05-28T12:54:50.569Z,100558.87
2019-05-28T12:57:22.923Z,100556.03
2019-05-28T12:59:55.265Z,100548.73
2019-05-28T13:02:27.838Z,100565.16
2019-05-28T13:05:00.567Z,100549.36
2019-05-28T13:07:32.971Z,100542.42
2019-05-28T13:10:06.163Z,100545.06
2019-05-28T13:12:39.003Z,100540.60
2019-05-28T13:15:12.190Z,100538.36
2019-05-28T13:17:44.694Z,100541.20
2019-05-28T13:20:18.616Z,100538.89
2019-05-28T13:22:51.331Z,100536.64
2019-05-28T13:25:24.118Z,100531.56
2019-05-28T13:27:56.359Z,100529.91
2019-05-28T13:30:28.903Z,100532.72
2019-05-28T13:33:01.452Z,100530.50
2019-05-28T13:35:33.721Z,100530.11
2019-05-28T13:38:25.258Z,100531.95
2019-05-28T13:40:40.158Z,100527.49
2019-05-28T13:43:12.978Z,100526.87
2019-05-28T13:45:45.243Z,100523.62
2019-05-28T13:48:17.562Z,100525.70
2019-05-28T13:50:49.825Z,100519.25
2019-05-28T13:53:22.213Z,100521.55
2019-05-28T13:55:54.465Z,100529.94
2019-05-28T13:58:26.743Z,100521.03
2019-05-28T14:00:59.206Z,100526.56
2019-05-28T14:03:31.502Z,100520.70
2019-05-28T14:06:03.953Z,100517.11
2019-05-28T14:08:46.452Z,100515.11
2019-05-28T14:11:10.384Z,100516.55
2019-05-28T14:13:42.842Z,100516.35
2019-05-28T14:16:15.428Z,100505.03
2019-05-28T14:18:47.708Z,100514.59
2019-05-28T14:21:20.003Z,100508.95
2019-05-28T14:23:52.328Z,100509.57
2019-05-28T14:26:24.748Z,100513.86
2019-05-28T14:28:57.012Z,100515.09
2019-05-28T14:31:29.485Z,100514.69
2019-05-28T14:34:01.793Z,100518.53
2019-05-28T14:36:34.200Z,100520.97
2019-05-28T14:39:09.045Z,100523.02
2019-05-28T14:41:41.737Z,100526.84
2019-05-28T14:44:14.210Z,100529.89
2019-05-28T14:46:46.592Z,100530.72
2019-05-28T14:49:19.156Z,100529.48
2019-05-28T14:51:51.870Z,100529.49
2019-05-28T14:54:24.781Z,100536.59
2019-05-28T14:56:57.759Z,100534.96
2019-05-28T14:59:30.342Z,100537.60
2019-05-28T15:02:02.708Z,100536.61
2019-05-28T15:04:35.186Z,100539.24
2019-05-28T15:07:07.556Z,100546.34
2019-05-28T15:09:40.436Z,100547.14
2019-05-28T15:12:13.114Z,100546.11
2019-05-28T15:14:45.511Z,100556.66
2019-05-28T15:17:17.850Z,100555.65
2019-05-28T15:19:50.264Z,100557.86
2019-05-28T15:22:22.608Z,100553.61
2019-05-28T15:24:54.960Z,100556.00
2019-05-28T15:27:27.319Z,100552.97
2019-05-28T15:29:59.677Z,100553.77
2019-05-28T15:32:31.911Z,100555.38
2019-05-28T15:35:04.249Z,100551.34
2019-05-28T15:37:36.674Z,100548.51
2019-05-28T15:40:11.130Z,100552.73
2019-05-28T15:42:43.419Z,100558.39
2019-05-28T15:45:16.167Z,100550.09
2019-05-28T15:47:48.440Z,100551.93
2019-05-28T15:50:21.015Z,100558.39
2019-05-28T15:52:53.261Z,100555.97
2019-05-28T15:55:26.008Z,100561.43
2019-05-28T15:57:58.287Z,100562.64
2019-05-28T16:00:30.542Z,100568.89
2019-05-28T16:03:02.878Z,100565.47
2019-05-28T16:05:35.235Z,100575.97
2019-05-28T16:08:07.665Z,100572.33
2019-05-28T16:10:42.950Z,100573.33
2019-05-28T16:13:15.301Z,100575.33
2019-05-28T16:15:47.553Z,100577.73
2019-05-28T16:18:20.110Z,100582.77
2019-05-28T16:20:52.884Z,100586.39
2019-05-28T16:23:25.965Z,100597.09
2019-05-28T16:25:59.337Z,100594.25
2019-05-28T16:28:31.769Z,100593.45
2019-05-28T16:31:12.589Z,100600.91
2019-05-28T16:33:38.086Z,100598.48
2019-05-28T16:36:10.416Z,100607.98
2019-05-28T16:38:43.011Z,100607.75
2019-05-28T16:41:15.718Z,100608.53
2019-05-28T16:43:48.203Z,100616.43
2019-05-28T16:46:20.573Z,100609.92
2019-05-28T16:48:52.779Z,100617.19
2019-05-28T16:51:25.348Z,100612.72
2019-05-28T16:53:58.220Z,100617.31
2019-05-28T16:56:30.633Z,100623.75
2019-05-28T16:59:02.925Z,100620.53
2019-05-28T17:01:36.041Z,100623.13
2019-05-28T17:04:08.367Z,100625.55
2019-05-28T17:06:40.734Z,100632.56
2019-05-28T17:09:12.947Z,100633.77
2019-05-28T17:11:45.313Z,100632.55
2019-05-28T17:14:17.874Z,100631.91
2019-05-28T17:16:50.214Z,100636.92
2019-05-28T17:19:23.795Z,100639.95
2019-05-28T17:21:57.536Z,100638.72
2019-05-28T17:24:31.568Z,100638.88
2019-05-28T17:27:03.896Z,100644.73
2019-05-28T17:29:36.901Z,100640.06
2019-05-28T17:32:09.248Z,100651.56
2019-05-28T17:34:41.693Z,100648.09
2019-05-28T17:37:14.167Z,100661.84
2019-05-28T17:39:46.444Z,100663.20
2019-05-28T17:42:18.891Z,100660.55
2019-05-28T17:44:51.167Z,100666.61
2019-05-28T17:47:23.483Z,100665.59
2019-05-28T17:49:55.921Z,100669.78
2019-05-28T17:52:28.191Z,100665.33
2019-05-28T17:55:00.456Z,100671.38
2019-05-28T17:57:33.326Z,100673.41
2019-05-28T18:00:06.294Z,100672.98
2019-05-28T18:02:38.941Z,100674.98
2019-05-28T18:05:11.597Z,100672.34
2019-05-28T18:07:43.924Z,100674.16
2019-05-28T18:10:17.158Z,100675.14
2019-05-28T18:12:49.595Z,100683.55
2019-05-28T18:15:21.912Z,100677.69
2019-05-28T18:17:54.546Z,100683.95
2019-05-28T18:20:27.019Z,100676.70
2019-05-28T18:22:59.555Z,100684.02
2019-05-28T18:25:34.555Z,100685.03
2019-05-28T18:28:12.218Z,100682.81
2019-05-28T18:30:48.449Z,100689.05
2019-05-28T18:33:23.129Z,100694.03
2019-05-28T18:35:55.343Z,100697.25
2019-05-28T18:38:27.621Z,100692.80
2019-05-28T18:41:00.104Z,100696.24
2019-05-28T18:43:32.426Z,100703.89
2019-05-28T18:46:04.787Z,100703.52
2019-05-28T18:48:38.455Z,100699.87
2019-05-28T18:51:11.007Z,100701.28
2019-05-28T18:53:43.321Z,100699.28
2019-05-28T18:56:17.792Z,100697.04
2019-05-28T18:58:49.724Z,100693.42
2019-05-28T19:01:21.951Z,100693.63
2019-05-28T19:03:54.282Z,100689.76
2019-05-28T19:06:26.666Z,100695.20
2019-05-28T19:08:59.005Z,100688.74
2019-05-28T19:11:37.825Z,100688.13
2019-05-28T19:14:05.692Z,100692.59
2019-05-28T19:16:39.078Z,100689.97
2019-05-28T19:19:11.478Z,100693.63
2019-05-28T19:21:46.218Z,100693.63
2019-05-28T19:24:37.652Z,100693.78
2019-05-28T19:27:10.168Z,100704.69
2019-05-28T19:29:42.584Z,100701.80
2019-05-28T19:32:14.837Z,100702.20
2019-05-28T19:34:48.717Z,100708.25
2019-05-28T19:37:21.364Z,100705.39
2019-05-28T19:39:54.096Z,100710.20
2019-05-28T19:42:26.562Z,100699.52
2019-05-28T19:44:59.275Z,100698.33
2019-05-28T19:47:34.543Z,100697.92
2019-05-28T19:50:07.826Z,100691.88
2019-05-28T19:52:41.709Z,100689.45
2019-05-28T19:55:14.798Z,100681.98
2019-05-28T19:57:47.471Z,100687.64
2019-05-28T20:00:20.107Z,100684.23
2019-05-28T20:02:52.674Z,100683.80
2019-05-28T20:05:25.176Z,100682.38
2019-05-28T20:07:57.633Z,100684.20
2019-05-28T20:10:30.282Z,100672.46
2019-05-28T20:13:02.656Z,100674.67
2019-05-28T20:15:35.574Z,100675.07
2019-05-28T20:18:08.259Z,100675.47
2019-05-28T20:20:40.586Z,100669.38
2019-05-28T20:23:12.791Z,100659.28
2019-05-28T20:25:48.476Z,100665.52
2019-05-28T20:28:19.692Z,100661.70
2019-05-28T20:30:52.579Z,100666.78
2019-05-28T20:33:24.983Z,100664.53
2019-05-28T20:35:57.464Z,100672.43
2019-05-28T20:38:29.844Z,100663.95
2019-05-28T20:41:03.918Z,100661.34
2019-05-28T20:43:36.320Z,100661.55
2019-05-28T20:46:08.690Z,100654.49
2019-05-28T20:48:40.982Z,100659.31
2019-05-28T20:51:21.527Z,100656.27
2019-05-28T20:53:47.303Z,100654.64
2019-05-28T20:56:19.735Z,100652.44
2019-05-28T20:58:52.015Z,100650.41
2019-05-28T21:01:24.438Z,100649.98
2019-05-28T21:03:58.085Z,100651.20
2019-05-28T21:06:30.636Z,100650.37
2019-05-28T21:09:02.859Z,100659.46
2019-05-28T21:11:35.111Z,100656.86
2019-05-28T21:14:07.909Z,100654.61
2019-05-28T21:16:40.288Z,100656.42
2019-05-28T21:19:12.938Z,100653.16
2019-05-28T21:21:45.611Z,100664.03
2019-05-28T21:24:18.229Z,100658.17
2019-05-28T21:26:50.637Z,100669.25
2019-05-28T21:29:22.992Z,100666.64
2019-05-28T21:31:55.279Z,100665.84
2019-05-28T21:34:29.081Z,100664.03
2019-05-28T21:37:02.617Z,100663.05
2019-05-28T21:39:36.119Z,100672.95
2019-05-28T21:42:08.340Z,100665.08
2019-05-28T21:44:40.676Z,100667.30
2019-05-28T21:47:12.956Z,100665.08
2019-05-28T21:49:45.540Z,100665.08
2019-05-28T21:52:17.951Z,100673.34
2019-05-28T21:54:50.452Z,100676.16
2019-05-28T21:57:22.817Z,100677.58
2019-05-28T21:59:55.717Z,100672.91
2019-05-28T22:02:28.254Z,100677.14
2019-05-28T22:05:05.663Z,100677.94
2019-05-28T22:07:34.691Z,100676.53
2019-05-28T22:10:08.585Z,100675.52
2019-05-28T22:12:41.536Z,100667.80
2019-05-28T22:15:14.490Z,100669.00
2019-05-28T22:17:47.364Z,100664.55
2019-05-28T22:20:20.212Z,100658.90
2019-05-28T22:22:52.538Z,100657.88
2019-05-28T22:25:24.740Z,100655.67
2019-05-28T22:27:57.067Z,100657.02
2019-05-28T22:30:29.855Z,100657.41
2019-05-28T22:33:02.336Z,100660.45
2019-05-28T22:35:35.090Z,100662.09
2019-05-28T22:38:07.576Z,100661.47
2019-05-28T22:40:39.894Z,100664.52
2019-05-28T22:43:12.199Z,100671.75
2019-05-28T22:45:44.691Z,100666.11
2019-05-28T22:48:17.813Z,100657.41
2019-05-28T22:50:50.603Z,100651.77
2019-05-28T22:53:22.948Z,100646.52
2019-05-28T22:55:55.271Z,100641.45
2019-05-28T22:58:28.051Z,100649.70
2019-05-28T23:01:00.487Z,100643.27
2019-05-28T23:03:33.343Z,100647.28
2019-05-28T23:06:07.203Z,100649.30
2019-05-28T23:08:40.249Z,100644.85
2019-05-28T23:11:12.598Z,100649.67
2019-05-28T23:13:47.021Z,100650.28
2019-05-28T23:16:19.510Z,100647.46
2019-05-28T23:18:52.143Z,100645.22
2019-05-28T23:21:24.647Z,100641.20
2019-05-28T23:23:57.326Z,100637.14
2019-05-28T23:26:29.794Z,100634.31
2019-05-28T23:29:02.128Z,100634.93
2019-05-28T23:31:34.318Z,100641.16
2019-05-28T23:34:06.854Z,100637.54
2019-05-28T23:36:39.174Z,100638.73
2019-05-28T23:39:13.126Z,100637.32
2019-05-28T23:41:45.648Z,100639.90
2019-05-28T23:44:18.426Z,100634.25
2019-05-28T23:46:50.783Z,100634.03
2019-05-28T23:49:23.344Z,100626.55
2019-05-28T23:51:56.144Z,100628.94
2019-05-28T23:54:28.926Z,100626.29
2019-05-28T23:57:01.703Z,100628.46
2019-05-28T23:59:34.254Z,100628.64
